Flight Track Log - Related Links

Times and Time Zones

All times are in EDT time to prevent confusion due to time zone crossing. See the N1723H flight status page for this flight to view local times or setup timezone preferences in your user account.

Time Position Orientation Groundspeed Altitude Reporting Facility
EDT Latitude Longitude Course Direction KTS MPH feet Rate Location/Type
Wed 01:31:20 PM 32.0619 -106.7611 North 102 117 8,300  Level Albuquerque Center
Wed 01:31:47 PM 32.0797 -106.7597 North 109 125 8,600 484 Climbing Albuquerque Center
Wed 01:32:22 PM 32.0978 -106.7567 North 104 120 8,800 393 Climbing Albuquerque Center
Wed 01:32:48 PM 32.1086 -106.7550 North 110 127 9,000 387 Climbing Albuquerque Center
Wed 01:33:24 PM 32.1272 -106.7606 346° North 104 120 9,200 358 Climbing Albuquerque Center
Wed 01:33:55 PM 32.1361 -106.7658 333° Northwest 105 121 9,400 387 Climbing Albuquerque Center
Wed 01:34:26 PM 32.1542 -106.7697 350° North 104 120 9,600 333 Climbing Albuquerque Center
Wed 01:34:49 PM 32.1664 -106.7686 North 105 121 9,700 290 Climbing Albuquerque Center
Wed 01:35:28 PM 32.1839 -106.7689 359° North 104 120 9,900 197 Climbing Albuquerque Center
Wed 01:35:50 PM 32.1964 -106.7686 North 110 127 9,900 194 Level Albuquerque Center
Wed 01:36:30 PM 32.2139 -106.7717 352° North 104 120 10,100 300 Climbing Albuquerque Center
Wed 01:36:50 PM 32.2219 -106.7800 319° Northwest 107 123 10,200 194 Climbing Albuquerque Center
Wed 01:37:32 PM 32.2383 -106.7881 337° Northwest 104 120 10,300 -90 Climbing Albuquerque Center
Wed 01:37:57 PM 32.2567 -106.7964 339° North 108 124 10,100 -97 Descending Albuquerque Center
Wed 01:38:34 PM 32.2756 -106.8067 335° Northwest 111 128 10,200 98 Climbing Albuquerque Center
Wed 01:38:58 PM 32.2875 -106.8142 332° Northwest 123 142 10,200 97 Level Albuquerque Center
Wed 01:39:36 PM 32.3069 -106.8267 331° Northwest 120 138 10,300 100 Climbing Albuquerque Center
Wed 01:39:58 PM 32.3183 -106.8317 340° North 126 145 10,300  Level Albuquerque Center
Wed 01:40:37 PM 32.3369 -106.8456 328° Northwest 121 139 10,300  Level Albuquerque Center
Wed 01:40:53 PM 32.3428 -106.8483 338° Northwest 125 144 10,300 -97 Level Albuquerque Center
Wed 01:41:39 PM 32.3675 -106.8639 332° Northwest 121 139 10,200  Descending Albuquerque Center
Wed 01:41:54 PM 32.3733 -106.8658 344° North 125 144 10,300  Climbing Albuquerque Center
Wed 01:42:41 PM 32.3978 -106.8819 331° Northwest 121 139 10,200 -100 Descending Albuquerque Center
Wed 01:42:54 PM 32.4042 -106.8833 350° North 123 142 10,200  Level Albuquerque Center
Wed 01:43:43 PM 32.4289 -106.8992 332° Northwest 121 139 10,200  Level Albuquerque Center
Wed 01:43:55 PM 32.4350 -106.9011 345° North 125 144 10,200  Level Albuquerque Center
Wed 01:44:45 PM 32.4658 -106.9219 330° Northwest 121 139 10,200  Level Albuquerque Center
Wed 01:44:55 PM 32.4664 -106.9211 52° Northeast 126 145 10,200 194 Level Albuquerque Center
Wed 01:45:47 PM 32.4972 -106.9417 331° Northwest 123 142 10,400 53 Climbing Albuquerque Center
Wed 01:46:49 PM 32.5253 -106.9678 322° Northwest 126 145 10,300 -97 Descending Albuquerque Center
Wed 01:47:51 PM 32.5542 -106.9972 319° Northwest 134 154 10,200 -48 Descending Albuquerque Center
Wed 01:48:53 PM 32.5811 -107.0281 316° Northwest 134 154 10,200 -82 Level Albuquerque Center
Wed 01:49:04 PM 32.5881 -107.0322 333° Northwest 137 158 10,100 -97 Descending Albuquerque Center
Wed 01:49:55 PM 32.6119 -107.0639 312° West 134 154 10,100 106 Level Albuquerque Center
Wed 01:50:57 PM 32.6369 -107.0919 317° Northwest 129 148 10,300 48 Climbing Albuquerque Center
Wed 01:51:59 PM 32.6619 -107.1214 315° West 128 147 10,200 -48 Descending Albuquerque Center
Wed 01:53:01 PM 32.6900 -107.1475 322° Northwest 128 147 10,200  Level Albuquerque Center
Wed 01:54:03 PM 32.7189 -107.1722 324° Northwest 128 147 10,200  Level Albuquerque Center
Wed 01:55:04 PM 32.7467 -107.1972 323° Northwest 128 147 10,200 49 Level Albuquerque Center
Wed 01:56:06 PM 32.7814 -107.2261 325° Northwest 128 147 10,300 48 Climbing Albuquerque Center
Wed 01:57:08 PM 32.8119 -107.2489 328° Northwest 128 147 10,300 -48 Level Albuquerque Center
Wed 01:58:10 PM 32.8425 -107.2728 327° Northwest 128 147 10,200 -48 Descending Albuquerque Center
Wed 01:59:12 PM 32.8747 -107.2942 331° Northwest 129 148 10,200 48 Level Albuquerque Center
Wed 02:00:14 PM 32.9086 -107.3150 333° Northwest 131 151 10,300 49 Climbing Albuquerque Center
Wed 02:01:15 PM 32.9414 -107.3364 331° Northwest 132 152 10,300  Level Albuquerque Center
Wed 02:02:17 PM 32.9803 -107.3586 334° Northwest 132 152 10,300  Level Albuquerque Center
Wed 02:03:19 PM 33.0183 -107.3672 349° North 133 153 10,300 -48 Level Albuquerque Center
Wed 02:04:21 PM 33.0578 -107.3472 23° Northeast 144 166 10,200 -48 Descending Albuquerque Center
Wed 02:05:23 PM 33.0981 -107.3289 21° North 149 171 10,200  Level Albuquerque Center
Wed 02:06:25 PM 33.1369 -107.3153 16° North 149 171 10,200  Level Albuquerque Center
Wed 02:07:26 PM 33.1764 -107.3044 13° North 149 171 10,200 49 Level Albuquerque Center
Wed 02:08:28 PM 33.2147 -107.2906 17° North 149 171 10,300 48 Climbing Albuquerque Center
Wed 02:09:30 PM 33.2603 -107.2736 17° North 146 168 10,300 -48 Level Albuquerque Center
Wed 02:10:32 PM 33.2992 -107.2600 16° North 146 168 10,200 -48 Descending Albuquerque Center
Wed 02:11:34 PM 33.3333 -107.2381 28° Northeast 144 166 10,200 49 Level Albuquerque Center
Wed 02:12:35 PM 33.3672 -107.2136 31° Northeast 142 163 10,300 49 Climbing Albuquerque Center
Wed 02:13:37 PM 33.4025 -107.1931 26° Northeast 142 163 10,300 48 Level Albuquerque Center
Wed 02:14:39 PM 33.4392 -107.1725 25° Northeast 142 163 10,400  Climbing Albuquerque Center
Wed 02:15:41 PM 33.4778 -107.1497 26° Northeast 146 168 10,300 -97 Descending Albuquerque Center
Wed 02:16:43 PM 33.5253 -107.1197 28° Northeast 154 177 10,200  Descending Albuquerque Center
Wed 02:17:45 PM 33.5633 -107.0958 28° Northeast 155 178 10,300 -48 Climbing Albuquerque Center
Wed 02:18:47 PM 33.6011 -107.0722 27° Northeast 155 178 10,100 -98 Descending Albuquerque Center
Wed 02:19:48 PM 33.6386 -107.0458 30° Northeast 155 178 10,100 49 Level Albuquerque Center
Wed 02:20:50 PM 33.6747 -107.0217 29° Northeast 155 178 10,200  Climbing Albuquerque Center
Wed 02:21:52 PM 33.7100 -106.9983 29° Northeast 151 174 10,100 -48 Descending Albuquerque Center
Wed 02:22:54 PM 33.7506 -106.9725 28° Northeast 145 167 10,100 49 Level Albuquerque Center
Wed 02:23:55 PM 33.7856 -106.9542 24° Northeast 140 161 10,200  Climbing Albuquerque Center
Wed 02:24:57 PM 33.8208 -106.9350 24° Northeast 140 161 10,100  Descending Albuquerque Center
Wed 02:25:59 PM 33.8553 -106.9122 29° Northeast 140 161 10,200 49 Climbing Albuquerque Center
Wed 02:27:00 PM 33.8933 -106.8950 21° North 141 162 10,200 -49 Level Albuquerque Center
Wed 02:28:02 PM 33.9333 -106.8917 North 141 162 10,100  Descending Albuquerque Center
Wed 02:29:04 PM 33.9756 -106.8897 North 146 168 10,200 49 Climbing Albuquerque Center
Wed 02:30:05 PM 34.0150 -106.8822 North 146 168 10,200  Level Albuquerque Center
Wed 02:31:07 PM 34.0589 -106.8675 16° North 141 162 10,200 -292 Level Albuquerque Center
Wed 02:33:10 PM 34.1478 -106.8556 North 162 186 9,300 -324 Descending Albuquerque Center
Wed 02:34:12 PM 34.1900 -106.8514 North 157 181 9,200 -48 Descending Albuquerque Center
Wed 02:35:14 PM 34.2328 -106.8403 12° North 156 180 9,200 -98 Level Albuquerque Center
Wed 02:36:15 PM 34.2728 -106.8283 14° North 152 175 9,000 49 Descending Albuquerque Center
Wed 02:37:17 PM 34.3164 -106.8164 13° North 133 153 9,300 237 Climbing Albuquerque Center
Wed 02:37:31 PM 34.3253 -106.8150 North 130 150 9,300  Level Albuquerque Center
Wed 02:38:14 PM 34.3544 -106.8100 North 153 176 9,300  Level Albuquerque Center
Wed 02:39:14 PM 34.3986 -106.8067 North 158 182 9,300 -58 Level Albuquerque Center
Wed 02:39:57 PM 34.4269 -106.8097 355° North 149 171 9,200 -88 Descending Albuquerque Center
Wed 02:40:22 PM 34.4447 -106.8117 355° North 149 171 9,200  Level Albuquerque Center
Wed 02:41:24 PM 34.4811 -106.8131 358° North 135 155 9,200 -125 Level Albuquerque Center
Wed 02:41:58 PM 34.5022 -106.8139 358° North 126 145 9,000  Descending Albuquerque Center
Wed 02:42:25 PM 34.5211 -106.8125 North 135 155 9,200 295 Climbing Albuquerque Center
Wed 02:42:59 PM 34.5403 -106.8119 North 133 153 9,300 97 Climbing Albuquerque Center
Wed 02:43:27 PM 34.5586 -106.8103 North 135 155 9,300 -98 Level Albuquerque Center
Wed 02:44:00 PM 34.5803 -106.8094 North 148 170 9,200  Descending Albuquerque Center
Wed 02:44:29 PM 34.6017 -106.8097 359° North 151 174 9,300  Climbing Albuquerque Center
Wed 02:45:00 PM 34.6228 -106.8089 North 153 176 9,200 -194 Descending Albuquerque Center
Wed 02:45:31 PM 34.6453 -106.8086 North 150 173 9,100  Descending Albuquerque Center
Wed 02:46:01 PM 34.6614 -106.8094 358° North 140 161 9,200  Climbing Albuquerque Center
Wed 02:46:32 PM 34.6750 -106.8275 313° West 136 157 9,100 98 Descending Albuquerque Center
Wed 02:47:02 PM 34.6806 -106.8458 290° West 123 142 9,300 194 Climbing Albuquerque Center
Wed 02:47:34 PM 34.6881 -106.8669 293° West 130 150 9,300 -98 Level Albuquerque Center
Wed 02:48:03 PM 34.6947 -106.8911 289° West 134 154 9,200 -97 Descending Albuquerque Center
Wed 02:48:36 PM 34.7022 -106.9136 292° West 134 154 9,200  Level Albuquerque Center
Wed 02:49:03 PM 34.7053 -106.9272 285° West 110 127 9,200 -97 Level Albuquerque Center
Wed 02:49:38 PM 34.7128 -106.9439 299° West 107 123 9,100 -98 Descending Albuquerque Center
Wed 02:50:04 PM 34.7144 -106.9558 280° West 82 94 9,100 98 Level Albuquerque Center
Wed 02:50:39 PM 34.7219 -106.9725 299° West 92 106 9,200 218 Climbing Albuquerque Center
Wed 02:50:59 PM 34.7233 -106.9822 280° West 88 101 9,300 97 Climbing Albuquerque Center
Wed 02:51:41 PM 34.7322 -107.0050 295° West 96 110 9,300  Level Albuquerque Center
Wed 02:52:06 PM 34.7361 -107.0203 287° West 117 135 9,300 -97 Level Albuquerque Center
Wed 02:52:43 PM 34.7442 -107.0433 293° West 116 133 9,200  Descending Albuquerque Center
Wed 02:53:07 PM 34.7531 -107.0572 308° West 134 154 9,300 97 Climbing Albuquerque Center
Wed 02:53:45 PM 34.7803 -107.0569 360° North 139 160 9,300 -333 Level Albuquerque Center
Wed 02:54:01 PM 34.7892 -107.0558 North 159 183 9,000 -387 Descending Albuquerque Center
Wed 02:54:47 PM 34.8214 -107.0356 27° Northeast 159 183 8,900 90 Descending Albuquerque Center
Wed 02:55:08 PM 34.8311 -107.0272 35° Northeast 137 158 9,100 290 Climbing Albuquerque Center
Wed 02:55:49 PM 34.8514 -107.0072 39° Northeast 131 151 9,200 98 Climbing Albuquerque Center
Wed 02:56:09 PM 34.8606 -106.9992 36° Northeast 131 151 9,200  Level Albuquerque Center
Wed 02:56:50 PM 34.8833 -106.9778 38° Northeast 142 163 9,200 175 Level Albuquerque Center
Wed 02:57:52 PM 34.9186 -106.9467 36° Northeast 152 175 9,500 75 Climbing Albuquerque Center
Wed 02:58:10 PM 34.9289 -106.9378 35° Northeast 156 180 9,300 -194 Descending Albuquerque Center
Wed 02:58:54 PM 34.9592 -106.9153 31° Northeast 162 186 9,300 -98 Level Albuquerque Center
Wed 02:59:11 PM 34.9667 -106.9100 30° Northeast 162 186 9,200 -484 Descending Albuquerque Center
Wed 02:59:56 PM 34.9903 -106.8919 32° Northeast 159 183 8,800 -533 Descending Albuquerque Center

Login

Don't have an account? Register now (free) for customized features, flight alerts, and more!